DeKalb, IL

7:36 AM CDT on June 22, 2017 (GMT -0500)
De Kalb Taylor Municipal

Weather History for KDKB - February, 2014

Change the Weather History Date:

Saturday, February 22, 2014

  Actual Average (KARR) Record (KARR)
Temperature  
Mean Temperature 23 °F -  
Max Temperature 29 °F 35 °F 68 °F (2017)
Min Temperature 16 °F 21 °F -3 °F (2015)
Degree Days  
Heating Degree Days 42    
Moisture  
Dew Point 13 °F    
Average Humidity 64    
Maximum Humidity 72    
Minimum Humidity 52    
Precipitation  
Precipitation 0.00 in - - ()
Sea Level Pressure  
Sea Level Pressure 29.97 in    
Wind  
Wind Speed 12 mph (West)    
Max Wind Speed 16 mph    
Max Gust Speed 24 mph    
Visibility 10 miles    
Events      
Averages and records for this station are not official NWS values.
T = Trace of Precipitation, MM = Missing Value Source: NWS Daily Summary

Daily Weather History Graph

Daily Weather History Graph

Search for Another Location

Airport or City:

Trip Planner

Search our weather history database for the weather conditions in past years. The results will help you decide how hot, cold, wet, or windy it might be!

Date:

Astronomy

Feb. 22, 2014 Rise Set
Actual Time 6:40 AM CST 5:36 PM CST
Civil Twilight 6:12 AM CST 6:04 PM CST
Nautical Twilight 5:39 AM CST 6:37 PM CST
Astronomical Twilight 5:07 AM CST 7:09 PM CST
Moon 12:37 AM CST 10:44 AM CST
Length of Visible Light 11h 52m
Length of Day
10h 56m
Waning Gibbous, 50% of the Moon is Illuminated
Feb 22
Waning Gibbous
Mar 1
New
Mar 8
First Quarter
Mar 16
Full
Mar 23
Last Quarter

Hourly Weather History & Observations

Time (CST) Temp. Windchill Dew Point Humidity Pressure Visibility Wind Dir Wind Speed Gust Speed Precip Events Conditions
12:15 AM 21.6 °F 9.9 °F 12.7 °F 69% 29.83 in 10.0 mi West 11.5 mph - N/A   Clear
12:35 AM 21.9 °F 10.4 °F 13.1 °F 69% 29.83 in 10.0 mi West 11.5 mph - N/A   Clear
12:55 AM 22.1 °F 10.0 °F 12.9 °F 68% 29.84 in 10.0 mi West 12.7 mph - N/A   Clear
1:15 AM 22.3 °F 10.8 °F 13.1 °F 68% 29.84 in 10.0 mi West 11.5 mph - N/A   Clear
1:35 AM 21.7 °F 10.2 °F 12.9 °F 69% 29.84 in 10.0 mi West 11.5 mph - N/A   Clear
1:55 AM 21.2 °F 9.5 °F 12.9 °F 70% 29.85 in 10.0 mi West 11.5 mph - N/A   Clear
2:15 AM 21.2 °F 9.5 °F 12.2 °F 68% 29.85 in 10.0 mi West 11.5 mph - N/A   Clear
2:35 AM 21.2 °F 8.9 °F 12.4 °F 69% 29.85 in 10.0 mi West 12.7 mph 16.1 mph N/A   Clear
2:55 AM 21.2 °F 8.3 °F 11.3 °F 66% 29.86 in 10.0 mi West 13.8 mph 18.4 mph N/A   Clear
3:15 AM 20.3 °F 7.7 °F 10.8 °F 67% 29.86 in 10.0 mi West 12.7 mph - N/A   Clear
3:35 AM 19.8 °F 7.7 °F 10.4 °F 67% 29.86 in 10.0 mi West 11.5 mph - N/A   Clear
3:55 AM 19.9 °F 6.2 °F 10.4 °F 67% 29.87 in 10.0 mi West 15.0 mph - N/A   Clear
4:15 AM 19.9 °F 8.6 °F 10.4 °F 67% 29.88 in 10.0 mi West 10.4 mph 16.1 mph N/A   Clear
4:35 AM 19.8 °F 8.3 °F 10.4 °F 67% 29.89 in 10.0 mi West 10.4 mph - N/A   Clear
4:55 AM 19.4 °F 7.2 °F 10.4 °F 68% 29.91 in 10.0 mi West 11.5 mph - N/A   Clear
5:15 AM 19.4 °F 6.6 °F 11.3 °F 71% 29.91 in 10.0 mi West 12.7 mph - N/A   Clear
5:35 AM 19.8 °F 7.7 °F 10.8 °F 68% 29.92 in 10.0 mi West 11.5 mph - N/A   Clear
5:55 AM 19.4 °F 7.2 °F 10.4 °F 68% 29.92 in 10.0 mi West 11.5 mph - N/A   Clear
6:15 AM 20.3 °F 8.3 °F 10.4 °F 66% 29.93 in 10.0 mi West 11.5 mph - N/A   Mostly Cloudy
6:35 AM 19.8 °F 6.5 °F 10.4 °F 67% 29.92 in 10.0 mi West 13.8 mph - N/A   Overcast
6:55 AM 19.8 °F 6.5 °F 10.8 °F 68% 29.94 in 10.0 mi West 13.8 mph - N/A   Mostly Cloudy
7:15 AM 20.3 °F 8.3 °F 10.6 °F 66% 29.96 in 10.0 mi SW 11.5 mph - N/A   Mostly Cloudy
7:35 AM 21.0 °F 9.3 °F 11.8 °F 68% 29.98 in 10.0 mi West 11.5 mph - N/A   Mostly Cloudy
7:55 AM 21.4 °F 8.5 °F 12.0 °F 67% 29.98 in 10.0 mi West 13.8 mph - N/A   Overcast
8:15 AM 22.1 °F 9.5 °F 11.3 °F 63% 29.98 in 10.0 mi West 13.8 mph 18.4 mph N/A   Overcast
8:35 AM 22.3 °F 10.2 °F 10.8 °F 61% 29.97 in 10.0 mi West 12.7 mph - N/A   Overcast
8:55 AM 22.6 °F 10.7 °F 10.8 °F 60% 29.99 in 10.0 mi WSW 12.7 mph - N/A   Overcast
9:15 AM 22.8 °F 10.9 °F 11.3 °F 61% 30.00 in 10.0 mi WSW 12.7 mph - N/A   Overcast
9:35 AM 23.0 °F 10.6 °F 11.1 °F 60% 29.99 in 10.0 mi West 13.8 mph - N/A   Overcast
9:55 AM 23.7 °F 13.3 °F 11.7 °F 60% 30.00 in 10.0 mi West 10.4 mph - N/A   Overcast
10:15 AM 23.9 °F 14.2 °F 10.8 °F 57% 30.01 in 10.0 mi West 9.2 mph - N/A   Overcast
10:35 AM 24.3 °F 13.3 °F 10.9 °F 57% 30.02 in 10.0 mi WSW 11.5 mph - N/A   Overcast
10:55 AM 24.4 °F 13.5 °F 11.3 °F 57% 30.02 in 10.0 mi West 11.5 mph - N/A   Overcast
11:15 AM 24.8 °F 14.6 °F 11.3 °F 57% 30.01 in 10.0 mi West 10.4 mph - N/A   Mostly Cloudy
11:35 AM 26.1 °F 16.8 °F 13.1 °F 58% 30.01 in 10.0 mi West 9.2 mph 16.1 mph N/A   Mostly Cloudy
11:55 AM 26.8 °F 16.5 °F 12.4 °F 55% 30.01 in 10.0 mi West 11.5 mph - N/A   Mostly Cloudy
12:15 PM 27.5 °F 18.0 °F 13.5 °F 56% 30.00 in 10.0 mi WSW 10.4 mph - N/A   Mostly Cloudy
12:35 PM 27.9 °F 19.8 °F 13.6 °F 55% 29.99 in 10.0 mi West 8.1 mph - N/A   Scattered Clouds
12:55 PM 28.0 °F 20.8 °F 12.6 °F 52% 29.99 in 10.0 mi West 6.9 mph 10.4 mph N/A   Mostly Cloudy
1:15 PM 28.8 °F 19.0 °F 14.7 °F 56% 29.98 in 10.0 mi West 11.5 mph - N/A   Scattered Clouds
1:35 PM 28.2 °F 18.3 °F 14.7 °F 57% 29.99 in 10.0 mi West 11.5 mph - N/A   Clear
1:55 PM 29.1 °F 19.4 °F 14.2 °F 54% 29.99 in 10.0 mi West 11.5 mph - N/A   Clear
2:15 PM 29.1 °F 18.9 °F 14.5 °F 55% 29.98 in 10.0 mi West 12.7 mph - N/A   Clear
2:35 PM 29.3 °F 20.2 °F 14.5 °F 54% 29.99 in 10.0 mi WSW 10.4 mph - N/A   Clear
2:55 PM 28.8 °F 19.5 °F 14.7 °F 56% 29.99 in 10.0 mi WSW 10.4 mph - N/A   Clear
3:15 PM 29.1 °F 20.0 °F 16.2 °F 58% 29.98 in 10.0 mi WSW 10.4 mph - N/A   Clear
3:35 PM 29.1 °F 20.0 °F 14.5 °F 55% 29.98 in 10.0 mi WSW 10.4 mph - N/A   Clear
3:55 PM 28.4 °F 19.7 °F 15.6 °F 59% 29.97 in 10.0 mi West 9.2 mph - N/A   Clear
4:15 PM 28.2 °F 18.9 °F 15.6 °F 59% 29.97 in 10.0 mi West 10.4 mph - N/A   Clear
4:35 PM 28.0 °F 18.6 °F 15.8 °F 60% 29.97 in 10.0 mi WNW 10.4 mph - N/A   Clear
4:55 PM 27.5 °F 19.3 °F 14.9 °F 59% 29.98 in 10.0 mi West 8.1 mph - N/A   Clear
5:15 PM 27.5 °F 20.2 °F 14.5 °F 58% 29.99 in 10.0 mi West 6.9 mph - N/A   Clear
5:35 PM 27.1 °F 17.5 °F 12.7 °F 55% 29.99 in 10.0 mi West 10.4 mph - N/A   Clear
5:55 PM 26.4 °F 19.8 °F 17.1 °F 68% 30.00 in 10.0 mi WSW 5.8 mph - N/A   Clear
6:15 PM 26.4 °F 18.0 °F 16.3 °F 66% 30.01 in 10.0 mi West 8.1 mph - N/A   Clear
6:35 PM 26.4 °F 17.3 °F 15.6 °F 64% 30.02 in 10.0 mi West 9.2 mph - N/A   Clear
6:55 PM 26.2 °F 17.1 °F 17.1 °F 68% 30.03 in 10.0 mi West 9.2 mph - N/A   Clear
7:15 PM 26.1 °F 15.6 °F 16.5 °F 67% 30.03 in 10.0 mi West 11.5 mph - N/A   Clear
7:35 PM 25.7 °F 15.7 °F 14.4 °F 62% 30.03 in 10.0 mi West 10.4 mph - N/A   Clear
7:55 PM 24.8 °F 14.6 °F 14.9 °F 66% 30.04 in 10.0 mi West 10.4 mph - N/A   Clear
8:15 PM 24.6 °F 13.2 °F 14.0 °F 64% 30.04 in 10.0 mi West 12.7 mph - N/A   Clear
8:35 PM 23.9 °F 12.3 °F 14.4 °F 67% 30.05 in 10.0 mi West 12.7 mph - N/A   Clear
8:55 PM 23.5 °F 13.0 °F 13.6 °F 66% 30.05 in 10.0 mi West 10.4 mph 17.3 mph N/A   Clear
9:15 PM 22.5 °F 12.4 °F 14.0 °F 70% 30.06 in 10.0 mi West 9.2 mph - N/A   Clear
9:35 PM 22.1 °F 9.5 °F 13.1 °F 68% 30.06 in 10.0 mi WNW 13.8 mph - N/A   Clear
9:55 PM 21.0 °F 7.6 °F 12.0 °F 68% 30.07 in 10.0 mi WNW 15.0 mph - N/A   Clear
10:15 PM 20.3 °F 6.1 °F 11.3 °F 68% 30.06 in 10.0 mi WNW 16.1 mph - N/A   Clear
10:35 PM 19.0 °F 4.5 °F 11.1 °F 71% 30.07 in 10.0 mi WNW 16.1 mph - N/A   Clear
10:55 PM 18.5 °F 3.8 °F 10.0 °F 70% 30.06 in 10.0 mi NW 16.1 mph 24.2 mph N/A   Clear
11:15 PM 18.0 °F 3.1 °F 9.0 °F 68% 30.05 in 10.0 mi NW 16.1 mph - N/A   Clear
11:35 PM 17.2 °F 2.7 °F 9.1 °F 71% 30.05 in 10.0 mi NW 15.0 mph - N/A   Clear
11:55 PM 16.5 °F 2.4 °F 9.0 °F 72% 30.05 in 10.0 mi NW 13.8 mph - N/A   Clear